Time;durP1;ratioP1;P1;durP2;ratioP2;P2;SDS_P1;SDS_P2;PMS_P1;PMS_P2;Temp;Humidity;BMP_temperature;BMP_pressure;BME280_temperature;BME280_humidity;BME280_pressure;Samples;Min_cycle;Max_cycle;Signal;HPM_P1;HPM_P2
2023/08/09 00:01:17;;;;;;;6.95;5.45;;;12.20;99.90;;;;;;4989785;28;20042;-83
2023/08/09 00:03:42;;;;;;;7.75;5.05;;;12.20;99.90;;;;;;4975228;28;20043;-83
2023/08/09 00:06:08;;;;;;;6.85;5.43;;;12.20;99.90;;;;;;4989081;28;20129;-83
2023/08/09 00:08:34;;;;;;;7.85;5.30;;;12.20;99.90;;;;;;4989214;28;20048;-83
2023/08/09 00:10:59;;;;;;;9.30;5.63;;;12.20;99.90;;;;;;4989667;28;20601;-83
2023/08/09 00:13:25;;;;;;;7.35;5.50;;;12.10;99.90;;;;;;4988760;28;20129;-83
2023/08/09 00:15:51;;;;;;;7.60;5.30;;;12.10;99.90;;;;;;4979214;28;20396;-83
2023/08/09 00:18:16;;;;;;;8.13;5.55;;;12.10;99.90;;;;;;4982084;28;20457;-84
2023/08/09 00:20:42;;;;;;;7.88;5.00;;;12.20;99.90;;;;;;4977416;28;20074;-84
2023/08/09 00:23:08;;;;;;;5.95;5.30;;;12.20;99.90;;;;;;4989500;28;20042;-84
2023/08/09 00:25:33;;;;;;;9.68;5.10;;;12.20;99.90;;;;;;4988051;28;20133;-83
2023/08/09 00:27:59;;;;;;;11.10;6.28;;;12.20;99.90;;;;;;4990232;28;20516;-85
2023/08/09 00:30:25;;;;;;;9.00;5.70;;;12.30;99.90;;;;;;4989371;28;20051;-85
2023/08/09 00:32:51;;;;;;;8.70;6.30;;;12.30;99.90;;;;;;4975764;28;20038;-84
2023/08/09 00:35:17;;;;;;;9.20;6.85;;;12.40;99.90;;;;;;4986941;28;20070;-84
2023/08/09 00:37:43;;;;;;;9.35;6.28;;;12.40;99.90;;;;;;4978302;28;20497;-85
2023/08/09 00:40:11;;;;;;;10.90;6.28;;;12.50;99.90;;;;;;4971163;28;20055;-84
2023/08/09 00:42:38;;;;;;;11.48;6.97;;;12.50;99.90;;;;;;4985176;28;20042;-84
2023/08/09 00:45:04;;;;;;;10.32;7.32;;;12.60;99.90;;;;;;4978899;28;20045;-84
2023/08/09 00:47:34;;;;;;;13.07;7.90;;;12.60;99.90;;;;;;4989804;28;20444;-85
2023/08/09 00:50:01;;;;;;;13.32;7.72;;;12.60;99.90;;;;;;4990264;28;20056;-84
2023/08/09 00:52:27;;;;;;;13.82;8.07;;;12.70;99.90;;;;;;4989494;28;20464;-83
2023/08/09 00:54:53;;;;;;;11.50;8.10;;;12.70;99.90;;;;;;4987516;28;20500;-85
2023/08/09 00:57:19;;;;;;;20.30;8.70;;;12.80;99.90;;;;;;4990299;28;20627;-85
2023/08/09 00:59:44;;;;;;;13.70;8.35;;;12.70;99.90;;;;;;4988532;28;20043;-83
2023/08/09 01:02:10;;;;;;;16.48;8.95;;;12.80;99.90;;;;;;4980828;28;20038;-83
2023/08/09 01:04:37;;;;;;;23.33;9.55;;;12.80;99.90;;;;;;4985630;28;20046;-87
2023/08/09 01:07:12;;;;;;;31.02;10.13;;;12.80;99.90;;;;;;4982798;28;20046;-85
2023/08/09 01:09:45;;;;;;;20.85;9.98;;;12.80;99.90;;;;;;4983733;28;20050;-84
2023/08/09 01:12:14;;;;;;;13.35;9.38;;;12.80;99.90;;;;;;4983426;28;20038;-85
2023/08/09 01:14:49;;;;;;;14.38;9.85;;;12.80;99.90;;;;;;4984378;28;20050;-83
2023/08/09 01:17:15;;;;;;;16.02;9.88;;;12.80;99.90;;;;;;4990167;28;20413;-85
2023/08/09 01:19:48;;;;;;;17.17;9.77;;;12.90;99.90;;;;;;4988929;28;20056;-84
2023/08/09 01:22:17;;;;;;;14.55;10.52;;;12.80;99.90;;;;;;4989175;28;20070;-84
2023/08/09 01:24:46;;;;;;;17.98;10.40;;;12.90;99.90;;;;;;4978255;28;20177;-84
2023/08/09 01:27:12;;;;;;;15.70;10.27;;;12.80;99.90;;;;;;4982754;28;20121;-86
2023/08/09 01:29:38;;;;;;;13.52;9.77;;;12.80;99.90;;;;;;4979947;28;20129;-84
2023/08/09 01:32:04;;;;;;;15.45;10.02;;;12.80;99.90;;;;;;4970458;28;20047;-86
2023/08/09 01:34:31;;;;;;;19.38;10.55;;;12.80;99.90;;;;;;4981139;28;20050;-84
2023/08/09 01:37:03;;;;;;;19.33;10.13;;;12.80;99.90;;;;;;4988732;28;20555;-84
2023/08/09 01:39:34;;;;;;;27.25;10.57;;;12.80;99.90;;;;;;4985856;28;20196;-84
2023/08/09 01:42:00;;;;;;;19.52;10.07;;;12.80;99.90;;;;;;4986902;28;20412;-84
2023/08/09 01:44:26;;;;;;;19.27;10.57;;;12.80;99.90;;;;;;4988513;28;20046;-84
2023/08/09 01:46:52;;;;;;;16.08;10.80;;;12.80;99.90;;;;;;4980981;28;20124;-84
2023/08/09 01:49:21;;;;;;;18.08;10.50;;;12.80;99.90;;;;;;4983426;28;20068;-84
2023/08/09 01:51:47;;;;;;;16.88;10.15;;;12.80;99.90;;;;;;4971041;28;20049;-83
2023/08/09 01:54:14;;;;;;;15.35;10.13;;;12.70;99.90;;;;;;4971756;28;20038;-84
2023/08/09 01:56:40;;;;;;;12.90;9.52;;;12.70;99.90;;;;;;4988108;28;20058;-84
2023/08/09 01:59:08;;;;;;;11.68;9.70;;;12.70;99.90;;;;;;4988399;28;20521;-84
2023/08/09 02:01:37;;;;;;;15.55;10.38;;;12.70;99.90;;;;;;4989113;28;20054;-85
2023/08/09 02:04:04;;;;;;;12.85;10.00;;;12.70;99.90;;;;;;4988298;28;20038;-84
2023/08/09 02:06:34;;;;;;;13.50;10.52;;;12.60;99.90;;;;;;4987148;28;20394;-85
2023/08/09 02:09:01;;;;;;;12.35;10.02;;;12.60;99.90;;;;;;4988545;28;20039;-86
2023/08/09 02:11:26;;;;;;;13.70;10.23;;;12.60;99.90;;;;;;4987350;28;20745;-84
2023/08/09 02:13:52;;;;;;;14.45;9.55;;;12.60;99.90;;;;;;4976728;28;20050;-84
2023/08/09 02:16:18;;;;;;;11.90;10.23;;;12.60;99.90;;;;;;4988428;28;20053;-84
2023/08/09 02:18:44;;;;;;;12.70;9.82;;;12.50;99.90;;;;;;4986679;28;20050;-85
2023/08/09 02:21:10;;;;;;;12.30;9.13;;;12.50;99.90;;;;;;4972403;28;20042;-84
2023/08/09 02:23:39;;;;;;;13.52;10.38;;;12.40;99.90;;;;;;4969387;28;20129;-85
2023/08/09 02:26:07;;;;;;;14.50;9.95;;;12.50;99.90;;;;;;4985481;28;20113;-84
2023/08/09 02:28:32;;;;;;;12.65;10.20;;;12.40;99.90;;;;;;4987384;28;20047;-84
2023/08/09 02:30:58;;;;;;;11.77;9.18;;;12.40;99.90;;;;;;4987422;28;20100;-84
2023/08/09 02:33:23;;;;;;;11.07;8.85;;;12.40;99.90;;;;;;4986318;28;20058;-83
2023/08/09 02:35:57;;;;;;;11.57;9.38;;;12.40;99.90;;;;;;4987148;28;20054;-84
2023/08/09 02:38:24;;;;;;;13.07;9.82;;;12.80;99.90;;;;;;4970437;28;20396;-85
2023/08/09 02:40:51;;;;;;;13.55;9.88;;;12.40;99.90;;;;;;4984149;28;20051;-85
2023/08/09 02:43:18;;;;;;;10.95;9.27;;;12.30;99.90;;;;;;4992806;28;20046;-85
2023/08/09 02:45:44;;;;;;;14.32;10.07;;;12.30;99.90;;;;;;4985439;28;20053;-85
2023/08/09 02:48:10;;;;;;;10.55;8.95;;;12.30;99.90;;;;;;4973296;28;20154;-84
2023/08/09 02:50:37;;;;;;;11.57;9.88;;;12.30;99.90;;;;;;4983618;28;20050;-85
2023/08/09 02:53:06;;;;;;;17.15;9.48;;;12.20;99.90;;;;;;4991042;28;20042;-85
2023/08/09 02:55:32;;;;;;;13.38;10.65;;;12.20;99.90;;;;;;4991877;28;20034;-86
2023/08/09 02:58:03;;;;;;;14.60;10.50;;;12.20;99.90;;;;;;4992303;28;20038;-85
2023/08/09 03:00:29;;;;;;;15.90;10.98;;;12.20;99.90;;;;;;4992365;28;20038;-86
2023/08/09 03:02:54;;;;;;;14.98;10.85;;;12.20;99.90;;;;;;4989279;28;20408;-85
2023/08/09 03:05:20;;;;;;;13.88;10.20;;;12.20;99.90;;;;;;4989763;28;20046;-85
2023/08/09 03:07:46;;;;;;;15.02;10.50;;;12.10;99.90;;;;;;4990773;28;20089;-85
2023/08/09 03:10:11;;;;;;;13.77;11.38;;;12.10;99.90;;;;;;4988366;28;20045;-85
2023/08/09 03:12:37;;;;;;;14.43;11.00;;;12.10;99.90;;;;;;4977471;28;20054;-85
2023/08/09 03:15:04;;;;;;;15.98;11.45;;;12.10;99.90;;;;;;4990642;28;20077;-86
2023/08/09 03:17:31;;;;;;;19.88;12.02;;;12.10;99.90;;;;;;4982744;28;20070;-84
2023/08/09 03:19:56;;;;;;;42.45;13.02;;;12.10;99.90;;;;;;4989153;28;20084;-86
2023/08/09 03:22:23;;;;;;;16.45;11.57;;;12.10;99.90;;;;;;4989296;28;20101;-85
2023/08/09 03:24:49;;;;;;;25.40;12.15;;;12.10;99.90;;;;;;4989515;28;20085;-85
2023/08/09 03:27:15;;;;;;;17.23;12.52;;;12.10;99.90;;;;;;4989431;28;20042;-86
2023/08/09 03:29:41;;;;;;;17.27;12.23;;;12.10;99.90;;;;;;4974040;28;20168;-85
2023/08/09 03:32:06;;;;;;;19.63;12.07;;;12.10;99.90;;;;;;4990265;28;20452;-85
2023/08/09 03:34:32;;;;;;;37.28;14.77;;;12.10;99.90;;;;;;4990873;28;20046;-84
2023/08/09 03:36:58;;;;;;;13.88;11.13;;;12.10;99.90;;;;;;4990887;28;20417;-84
2023/08/09 03:39:23;;;;;;;20.58;12.07;;;12.10;99.90;;;;;;4990954;28;20058;-85
2023/08/09 03:41:49;;;;;;;26.65;13.05;;;12.10;99.90;;;;;;4966567;28;20058;-85
2023/08/09 03:44:15;;;;;;;15.98;12.20;;;12.10;99.90;;;;;;4984760;28;20205;-85
2023/08/09 03:46:41;;;;;;;18.85;12.77;;;12.10;99.90;;;;;;4987683;28;20535;-86
2023/08/09 03:49:07;;;;;;;21.98;12.82;;;12.40;99.90;;;;;;4985955;28;20939;-85
2023/08/09 03:51:32;;;;;;;27.70;13.35;;;12.10;99.90;;;;;;4987287;28;20053;-85
2023/08/09 03:53:59;;;;;;;26.85;12.20;;;12.10;99.90;;;;;;4981188;28;20130;-85
2023/08/09 03:56:24;;;;;;;17.35;11.50;;;12.10;99.90;;;;;;4984897;28;20076;-85
2023/08/09 03:58:50;;;;;;;26.73;12.45;;;12.10;99.90;;;;;;4991061;28;20504;-84
2023/08/09 04:01:16;;;;;;;21.40;12.60;;;12.10;99.90;;;;;;4980618;28;20138;-85
2023/08/09 04:03:41;;;;;;;19.75;12.63;;;12.10;99.90;;;;;;4983885;28;20065;-84
2023/08/09 04:06:07;;;;;;;14.48;12.00;;;12.10;99.90;;;;;;4990586;28;20046;-85
2023/08/09 04:08:34;;;;;;;12.85;10.85;;;12.10;99.90;;;;;;4990418;28;20412;-85
2023/08/09 04:11:04;;;;;;;16.67;11.98;;;12.00;99.90;;;;;;4990233;28;20063;-85
2023/08/09 04:13:30;;;;;;;16.25;12.05;;;12.10;99.90;;;;;;4989803;28;20053;-85
2023/08/09 04:15:55;;;;;;;16.65;11.95;;;12.00;99.90;;;;;;4990709;28;20492;-84
2023/08/09 04:18:21;;;;;;;21.23;12.23;;;12.00;99.90;;;;;;4989903;28;20046;-84
2023/08/09 04:20:47;;;;;;;12.93;11.45;;;11.90;99.90;;;;;;4990552;28;20204;-84
2023/08/09 04:23:12;;;;;;;17.95;11.40;;;11.90;99.90;;;;;;4989979;28;20126;-84
2023/08/09 04:25:38;;;;;;;13.93;11.73;;;11.90;99.90;;;;;;4987839;28;20046;-83
2023/08/09 04:28:04;;;;;;;25.17;12.88;;;11.90;99.90;;;;;;4971479;28;20066;-85
2023/08/09 04:30:30;;;;;;;17.60;11.30;;;11.80;99.90;;;;;;4981610;28;20043;-84
2023/08/09 04:32:55;;;;;;;13.95;11.65;;;11.80;99.90;;;;;;4987128;28;20069;-85
2023/08/09 04:35:22;;;;;;;14.95;11.98;;;11.80;99.90;;;;;;4988752;28;20042;-84
2023/08/09 04:37:47;;;;;;;14.75;11.85;;;11.80;99.90;;;;;;4959596;28;20068;-84
2023/08/09 04:40:13;;;;;;;14.63;11.43;;;11.80;99.90;;;;;;4976298;28;20049;-84
2023/08/09 04:42:42;;;;;;;14.32;12.23;;;11.70;99.90;;;;;;4990460;28;20097;-84
2023/08/09 04:45:12;;;;;;;13.82;11.25;;;11.80;99.90;;;;;;4989873;28;20065;-84
2023/08/09 04:47:37;;;;;;;16.65;12.60;;;11.80;99.90;;;;;;4989430;28;20046;-85
2023/08/09 04:50:04;;;;;;;11.75;10.55;;;11.80;99.90;;;;;;4979807;28;20703;-85
2023/08/09 04:52:31;;;;;;;14.07;12.07;;;11.80;99.90;;;;;;4986580;28;20042;-85
2023/08/09 04:54:57;;;;;;;16.52;11.82;;;11.80;99.90;;;;;;4988554;28;20058;-85
2023/08/09 04:57:23;;;;;;;14.38;12.35;;;11.90;99.90;;;;;;4989450;28;20054;-86
2023/08/09 04:59:48;;;;;;;14.57;11.60;;;11.90;99.90;;;;;;4988236;28;20556;-85
2023/08/09 05:02:14;;;;;;;12.95;11.27;;;11.90;99.90;;;;;;4987571;28;20050;-85
2023/08/09 05:04:39;;;;;;;13.93;12.45;;;12.00;99.90;;;;;;4988015;28;20049;-85
2023/08/09 05:07:05;;;;;;;20.55;11.13;;;12.00;99.90;;;;;;4988800;28;20042;-86
2023/08/09 05:09:32;;;;;;;13.23;11.38;;;12.10;99.90;;;;;;4979332;28;20042;-85
2023/08/09 05:11:58;;;;;;;13.77;10.60;;;12.10;99.90;;;;;;4982919;28;20064;-85
2023/08/09 05:14:25;;;;;;;13.00;11.00;;;12.10;99.90;;;;;;4966274;28;20053;-87
2023/08/09 05:16:51;;;;;;;12.20;10.73;;;12.20;99.90;;;;;;4989310;28;20444;-84
2023/08/09 05:19:17;;;;;;;11.85;10.20;;;12.30;99.90;;;;;;4980807;28;20050;-86
2023/08/09 05:21:42;;;;;;;12.70;10.52;;;12.30;99.90;;;;;;4980084;28;20039;-86
2023/08/09 05:24:08;;;;;;;11.75;10.55;;;12.40;99.90;;;;;;4979293;28;20054;-85
2023/08/09 05:26:33;;;;;;;11.45;10.27;;;12.40;99.90;;;;;;4984640;28;20046;-86
2023/08/09 05:28:59;;;;;;;11.77;10.15;;;12.40;99.90;;;;;;4980158;28;20054;-86
2023/08/09 05:31:25;;;;;;;11.35;10.27;;;12.40;99.90;;;;;;4975345;28;20109;-87
2023/08/09 05:33:50;;;;;;;10.13;9.20;;;12.40;99.90;;;;;;4969133;28;20054;-86
2023/08/09 05:36:16;;;;;;;10.85;9.75;;;12.50;99.90;;;;;;4986165;28;20073;-86
2023/08/09 05:38:41;;;;;;;10.85;9.80;;;12.50;99.90;;;;;;4987199;28;20042;-86
2023/08/09 05:41:07;;;;;;;9.90;8.93;;;12.60;99.90;;;;;;4984569;28;20052;-85
2023/08/09 05:43:33;;;;;;;11.60;10.05;;;12.70;99.90;;;;;;4977421;28;20046;-86
2023/08/09 05:46:00;;;;;;;9.23;8.32;;;12.70;99.90;;;;;;4978414;28;20046;-86
2023/08/09 05:48:25;;;;;;;9.98;8.95;;;12.80;99.90;;;;;;4985150;28;20206;-85
2023/08/09 05:50:51;;;;;;;9.57;8.68;;;12.80;99.90;;;;;;4969621;28;20083;-86
2023/08/09 05:53:17;;;;;;;10.88;9.75;;;13.20;99.90;;;;;;4977008;28;20050;-86
2023/08/09 05:55:42;;;;;;;9.70;8.80;;;14.10;99.90;;;;;;4987471;28;20532;-85
2023/08/09 05:58:08;;;;;;;8.70;8.00;;;15.30;99.90;;;;;;4986233;28;20069;-85
2023/08/09 06:00:34;;;;;;;9.15;8.32;;;16.40;99.90;;;;;;4986140;28;20122;-85
2023/08/09 06:03:00;;;;;;;8.68;7.88;;;17.20;99.90;;;;;;4969308;28;20043;-84
2023/08/09 06:05:26;;;;;;;8.80;8.00;;;17.90;99.90;;;;;;4973819;28;20528;-88
2023/08/09 06:07:57;;;;;;;7.38;6.68;;;18.40;99.90;;;;;;4973155;28;20050;-92
2023/08/09 06:10:23;;;;;;;8.43;7.72;;;18.90;99.90;;;;;;4982608;28;20046;-89
2023/08/09 06:12:50;;;;;;;7.00;6.40;;;19.20;99.90;;;;;;4972677;28;20043;-90
2023/08/09 06:15:16;;;;;;;6.70;6.10;;;19.80;99.90;;;;;;4972435;28;20444;-90
2023/08/09 06:17:42;;;;;;;6.13;5.63;;;19.80;99.90;;;;;;4972145;28;20062;-89
2023/08/09 06:20:08;;;;;;;6.43;5.93;;;19.90;99.90;;;;;;4982620;28;20042;-89
2023/08/09 06:22:34;;;;;;;6.50;5.93;;;19.70;99.90;;;;;;4971539;28;20050;-90
2023/08/09 06:24:59;;;;;;;6.30;5.70;;;18.90;99.90;;;;;;4981311;28;20412;-91
2023/08/09 06:27:32;;;;;;;5.75;5.20;;;18.10;99.90;;;;;;4992073;28;20042;-91
2023/08/09 06:29:58;;;;;;;5.78;5.30;;;17.30;99.90;;;;;;4978504;28;20489;-90
2023/08/09 06:32:23;;;;;;;5.65;4.82;;;16.80;99.90;;;;;;4973482;28;20047;-90
2023/08/09 06:34:49;;;;;;;5.25;4.75;;;16.40;99.90;;;;;;4987708;28;20160;-88
2023/08/09 06:37:14;;;;;;;5.00;4.28;;;16.20;99.90;;;;;;4990166;28;20047;-90
2023/08/09 06:39:40;;;;;;;5.90;4.47;;;16.00;99.90;;;;;;4991315;28;20102;-90
2023/08/09 06:42:05;;;;;;;4.45;3.97;;;15.90;99.90;;;;;;4989239;28;20128;-90
2023/08/09 06:44:31;;;;;;;3.88;3.58;;;15.90;99.90;;;;;;4990143;28;20552;-88
2023/08/09 06:46:57;;;;;;;4.65;3.75;;;15.90;99.90;;;;;;4986597;28;20133;-89
2023/08/09 06:49:24;;;;;;;5.47;3.70;;;15.80;99.90;;;;;;4985290;28;20146;-90
2023/08/09 06:51:50;;;;;;;3.70;3.38;;;15.90;99.90;;;;;;4988711;28;20046;-90
2023/08/09 06:54:16;;;;;;;4.53;3.22;;;15.90;99.90;;;;;;4992132;28;20064;-89
2023/08/09 06:56:42;;;;;;;5.35;3.40;;;15.90;99.90;;;;;;4989363;28;20166;-90
2023/08/09 06:59:07;;;;;;;5.03;3.40;;;16.00;99.90;;;;;;4986088;28;20101;-87
2023/08/09 07:01:33;;;;;;;3.83;3.42;;;16.00;99.90;;;;;;4989979;28;20515;-88
2023/08/09 07:04:00;;;;;;;4.97;3.40;;;16.10;99.90;;;;;;4993375;28;20061;-88
2023/08/09 07:06:25;;;;;;;3.55;2.83;;;16.20;99.90;;;;;;4983263;28;20059;-91
2023/08/09 07:08:53;;;;;;;2.95;2.65;;;16.30;99.90;;;;;;4995561;28;20563;-90
2023/08/09 07:11:20;;;;;;;3.92;3.20;;;16.30;99.90;;;;;;4998362;28;20574;-93
2023/08/09 07:13:45;;;;;;;4.00;2.63;;;16.40;99.90;;;;;;4992021;28;20050;-91
2023/08/09 07:16:11;;;;;;;4.50;2.90;;;16.60;99.90;;;;;;4986019;28;20152;-90
2023/08/09 07:18:37;;;;;;;3.25;3.05;;;16.70;99.90;;;;;;4988931;28;20497;-88
2023/08/09 07:21:03;;;;;;;3.17;2.55;;;16.80;99.90;;;;;;4989316;28;20077;-86
2023/08/09 07:23:29;;;;;;;3.08;2.58;;;16.90;99.90;;;;;;4987287;28;20088;-88
2023/08/09 07:25:54;;;;;;;3.10;2.70;;;17.00;99.90;;;;;;4977934;28;20102;-89
2023/08/09 07:28:21;;;;;;;3.10;2.47;;;17.10;99.90;;;;;;4971656;28;20039;-88
2023/08/09 07:30:50;;;;;;;2.70;2.45;;;17.20;99.90;;;;;;4972467;28;20552;-87
2023/08/09 07:33:16;;;;;;;2.88;2.17;;;17.30;99.90;;;;;;4972182;28;20552;-89
2023/08/09 07:35:42;;;;;;;4.13;2.80;;;17.40;99.90;;;;;;4972663;28;20054;-85
2023/08/09 07:38:07;;;;;;;3.28;2.50;;;17.50;99.90;;;;;;4971932;28;20051;-86
2023/08/09 07:40:33;;;;;;;3.58;2.50;;;17.50;99.90;;;;;;4972314;28;20547;-86
2023/08/09 07:43:00;;;;;;;2.60;2.30;;;17.40;99.90;;;;;;4971979;28;20497;-89
2023/08/09 07:45:26;;;;;;;3.38;2.58;;;17.50;99.90;;;;;;4970535;28;20054;-88
2023/08/09 07:47:51;;;;;;;5.00;2.80;;;17.60;99.90;;;;;;4972513;28;20146;-88
2023/08/09 07:50:17;;;;;;;3.35;2.90;;;17.80;99.90;;;;;;4972411;28;20055;-87
2023/08/09 07:52:43;;;;;;;3.78;2.65;;;17.70;99.90;;;;;;4970784;28;20137;-85
2023/08/09 07:55:09;;;;;;;2.75;2.50;;;17.80;99.90;;;;;;4969638;28;20655;-86
2023/08/09 07:57:34;;;;;;;3.00;2.70;;;17.90;99.90;;;;;;4971400;28;20524;-85
2023/08/09 08:00:11;;;;;;;3.10;1.98;;;17.90;99.90;;;;;;4970837;28;20055;-87
2023/08/09 08:02:38;;;;;;;4.05;2.47;;;18.00;99.90;;;;;;4971532;28;20856;-85
2023/08/09 08:05:04;;;;;;;4.05;2.13;;;18.20;99.90;;;;;;4970840;28;20982;-85
2023/08/09 08:07:29;;;;;;;4.03;2.90;;;18.20;99.90;;;;;;4970682;28;20076;-83
2023/08/09 08:09:55;;;;;;;3.40;2.38;;;18.20;99.90;;;;;;4970574;28;20055;-82
2023/08/09 08:12:22;;;;;;;3.17;2.33;;;18.40;99.90;;;;;;4970694;28;20039;-83
2023/08/09 08:14:48;;;;;;;2.50;2.30;;;18.50;99.90;;;;;;4970944;28;20141;-83
2023/08/09 08:17:13;;;;;;;2.97;2.28;;;18.50;99.90;;;;;;4969706;28;20118;-84
2023/08/09 08:19:39;;;;;;;3.80;2.38;;;18.60;99.90;;;;;;4977408;28;20069;-83
2023/08/09 08:22:05;;;;;;;2.85;2.65;;;18.60;99.90;;;;;;4990215;28;20054;-82
2023/08/09 08:24:31;;;;;;;5.03;2.25;;;18.50;99.90;;;;;;4989514;28;20168;-82
2023/08/09 08:26:57;;;;;;;2.45;2.15;;;18.60;99.90;;;;;;4990303;28;20137;-81
2023/08/09 08:29:23;;;;;;;3.53;2.10;;;18.70;99.90;;;;;;4989556;28;20058;-84
2023/08/09 08:31:50;;;;;;;2.55;1.60;;;18.70;99.90;;;;;;4990431;28;20057;-83
2023/08/09 08:34:17;;;;;;;2.60;2.33;;;18.90;99.90;;;;;;4989848;28;20052;-83
2023/08/09 08:36:44;;;;;;;2.55;2.13;;;19.00;99.90;;;;;;4989541;28;20062;-83
2023/08/09 08:39:14;;;;;;;1.95;1.70;;;19.10;99.90;;;;;;4987727;28;20058;-84
2023/08/09 08:41:41;;;;;;;3.25;1.60;;;19.20;99.90;;;;;;4989876;28;20140;-85
2023/08/09 08:44:08;;;;;;;2.63;1.50;;;19.30;99.90;;;;;;4989470;28;20046;-83
2023/08/09 08:46:33;;;;;;;2.13;1.40;;;19.30;99.90;;;;;;4989779;28;20432;-83
2023/08/09 08:49:03;;;;;;;2.80;1.20;;;19.50;99.90;;;;;;4989380;28;20074;-83
2023/08/09 08:51:29;;;;;;;6.82;1.10;;;19.50;99.90;;;;;;4988562;28;20447;-84
2023/08/09 08:53:54;;;;;;;2.83;1.48;;;19.50;99.90;;;;;;4988537;28;20050;-84
2023/08/09 08:56:20;;;;;;;2.65;1.20;;;19.30;99.90;;;;;;4989297;28;20042;-84
2023/08/09 08:58:47;;;;;;;1.50;1.02;;;19.30;99.90;;;;;;4989616;28;20050;-85
2023/08/09 09:01:12;;;;;;;2.20;1.40;;;19.50;99.90;;;;;;4988154;28;20236;-85
2023/08/09 09:03:38;;;;;;;2.30;1.25;;;19.70;99.90;;;;;;4989679;28;20149;-87
2023/08/09 09:06:03;;;;;;;2.00;1.25;;;19.70;99.90;;;;;;4988837;28;20046;-86
2023/08/09 09:08:29;;;;;;;2.30;1.02;;;19.60;99.90;;;;;;4989213;28;20046;-89
2023/08/09 09:10:57;;;;;;;2.65;1.20;;;19.90;99.90;;;;;;4988669;28;20060;-86
2023/08/09 09:13:27;;;;;;;2.50;1.15;;;20.00;99.90;;;;;;4988001;28;20082;-90
2023/08/09 09:15:54;;;;;;;2.97;1.38;;;20.20;99.90;;;;;;4988502;28;20042;-90
2023/08/09 09:18:21;;;;;;;2.85;1.67;;;20.30;99.90;;;;;;4988610;28;20461;-87
2023/08/09 09:20:47;;;;;;;2.00;1.10;;;20.20;99.90;;;;;;4988179;28;20042;-86
2023/08/09 09:23:27;;;;;;;2.17;1.10;;;20.30;99.90;;;;;;4987478;28;20064;-88
2023/08/09 09:26:19;;;;;;;1.45;1.10;;;20.20;99.90;;;;;;4989504;28;20054;-86
2023/08/09 09:28:47;;;;;;;5.85;1.40;;;20.20;99.90;;;;;;4989105;28;20088;-85
2023/08/09 09:31:14;;;;;;;4.88;1.33;;;20.30;99.90;;;;;;4988703;28;20907;-84
2023/08/09 09:33:47;;;;;;;3.03;0.98;;;20.30;99.90;;;;;;4987010;28;20046;-86
2023/08/09 09:36:13;;;;;;;2.70;1.20;;;20.10;99.90;;;;;;4988257;28;20484;-85
2023/08/09 09:38:39;;;;;;;3.10;1.33;;;19.90;99.90;;;;;;4987936;28;20050;-86
2023/08/09 09:41:07;;;;;;;2.80;1.35;;;19.70;99.90;;;;;;4988943;28;20088;-86
2023/08/09 09:43:36;;;;;;;2.33;0.98;;;19.70;99.90;;;;;;4988857;28;20035;-87
2023/08/09 09:46:02;;;;;;;4.72;1.10;;;19.80;99.90;;;;;;4988582;28;20539;-84
2023/08/09 09:48:29;;;;;;;1.30;1.00;;;19.90;99.90;;;;;;4969947;28;20129;-87
2023/08/09 09:50:55;;;;;;;2.83;1.10;;;20.20;99.90;;;;;;4968320;28;20051;-84
2023/08/09 09:53:21;;;;;;;5.72;0.95;;;20.40;99.90;;;;;;4968961;28;20047;-86
2023/08/09 09:55:47;;;;;;;2.65;1.00;;;20.60;99.90;;;;;;4967831;28;20477;-85
2023/08/09 09:58:13;;;;;;;2.15;0.90;;;20.60;99.60;;;;;;4968963;28;20046;-84
2023/08/09 10:00:49;;;;;;;2.25;1.30;;;20.60;99.30;;;;;;4968948;28;20047;-85
2023/08/09 10:03:21;;;;;;;1.83;1.17;;;20.60;99.20;;;;;;4969177;28;20049;-85
2023/08/09 10:05:48;;;;;;;2.05;1.10;;;20.70;99.80;;;;;;4968989;28;20154;-85
2023/08/09 10:08:14;;;;;;;1.90;1.10;;;20.70;99.90;;;;;;4968881;28;20050;-83
2023/08/09 10:10:42;;;;;;;2.38;1.05;;;20.80;99.30;;;;;;4968947;28;20050;-86
2023/08/09 10:13:09;;;;;;;3.53;0.90;;;20.80;98.40;;;;;;4969136;28;20085;-86
2023/08/09 10:15:46;;;;;;;3.80;1.00;;;20.80;97.60;;;;;;4967644;28;20042;-86
2023/08/09 10:18:15;;;;;;;1.50;0.90;;;20.90;96.40;;;;;;4969000;28;20118;-86
2023/08/09 10:20:50;;;;;;;1.52;0.98;;;21.10;97.00;;;;;;4968355;28;20113;-84
2023/08/09 10:23:24;;;;;;;1.92;0.93;;;21.20;97.40;;;;;;4968345;28;20051;-83
2023/08/09 10:25:51;;;;;;;2.38;1.30;;;21.00;96.50;;;;;;4966848;28;20061;-83
2023/08/09 10:28:37;;;;;;;1.65;1.02;;;21.00;97.50;;;;;;4968554;28;20094;-85
2023/08/09 10:31:02;;;;;;;1.52;0.90;;;21.00;97.10;;;;;;4968452;28;20053;-84
2023/08/09 10:33:31;;;;;;;3.97;1.00;;;21.00;97.30;;;;;;4968265;28;20074;-84
2023/08/09 10:35:57;;;;;;;1.23;0.73;;;20.80;96.90;;;;;;4968833;28;20059;-83
2023/08/09 10:38:31;;;;;;;3.03;0.90;;;20.80;96.90;;;;;;4967995;28;20109;-83
2023/08/09 10:40:58;;;;;;;2.80;1.00;;;20.80;96.10;;;;;;4966899;28;20086;-83
2023/08/09 10:43:26;;;;;;;2.25;0.95;;;21.00;96.10;;;;;;4968649;28;20050;-84
2023/08/09 10:45:55;;;;;;;2.00;1.00;;;21.20;95.70;;;;;;4968705;28;20047;-86
2023/08/09 10:48:27;;;;;;;2.05;0.90;;;21.30;95.40;;;;;;4968698;28;20795;-86
2023/08/09 10:51:08;;;;;;;;;;;21.20;95.70;;;;;;4969366;28;20057;-86
2023/08/09 10:54:03;;;;;;;2.20;0.90;;;21.10;94.10;;;;;;4966407;28;19949;-84
2023/08/09 10:56:29;;;;;;;2.60;0.82;;;21.10;95.90;;;;;;4959113;28;20067;-83
2023/08/09 10:58:55;;;;;;;1.35;0.85;;;21.30;96.60;;;;;;4971117;28;20050;-85
2023/08/09 11:01:25;;;;;;;2.97;1.33;;;21.20;94.50;;;;;;4987447;28;20732;-84
2023/08/09 11:03:56;;;;;;;1.90;0.98;;;21.10;93.10;;;;;;4989834;28;20054;-83
2023/08/09 11:06:41;;;;;;;2.05;0.88;;;20.80;94.00;;;;;;4985368;28;20046;-84
2023/08/09 11:09:14;;;;;;;2.13;1.00;;;20.70;93.90;;;;;;4990896;28;20057;-83
2023/08/09 11:11:43;;;;;;;1.75;1.10;;;20.50;95.10;;;;;;4987538;28;20050;-81
2023/08/09 11:14:10;;;;;;;1.20;1.08;;;20.50;96.10;;;;;;4990901;28;20060;-84
2023/08/09 11:16:36;;;;;;;1.30;1.15;;;20.30;97.20;;;;;;4970479;28;20058;-83
2023/08/09 11:19:07;;;;;;;1.83;0.80;;;20.50;96.80;;;;;;4973939;28;20047;-83
2023/08/09 11:21:48;;;;;;;3.35;1.27;;;20.50;96.90;;;;;;4989924;28;20050;-84
2023/08/09 11:24:16;;;;;;;1.55;1.10;;;20.70;94.50;;;;;;4988629;28;20042;-84
2023/08/09 11:26:52;;;;;;;2.25;1.20;;;20.60;96.10;;;;;;4978160;28;20616;-84
2023/08/09 11:29:19;;;;;;;2.85;1.55;;;20.70;96.40;;;;;;4982439;28;20057;-84
2023/08/09 11:31:47;;;;;;;2.38;1.42;;;20.80;96.80;;;;;;4980954;28;20058;-85
2023/08/09 11:34:15;;;;;;;4.75;1.20;;;21.00;97.00;;;;;;4989941;28;20054;-84
2023/08/09 11:36:42;;;;;;;2.17;1.08;;;21.10;96.10;;;;;;4989027;28;20417;-83
2023/08/09 11:39:10;;;;;;;1.17;1.00;;;21.10;95.50;;;;;;4974864;28;20050;-84
2023/08/09 11:41:42;;;;;;;2.10;1.25;;;21.20;95.80;;;;;;4990918;28;20097;-83
2023/08/09 11:44:08;;;;;;;1.75;1.20;;;21.30;95.60;;;;;;4990450;28;20050;-86
2023/08/09 11:46:34;;;;;;;1.92;1.00;;;21.50;96.40;;;;;;4989402;28;20058;-86
2023/08/09 11:49:04;;;;;;;1.48;1.20;;;21.70;95.90;;;;;;4990176;28;20054;-85
2023/08/09 11:51:32;;;;;;;2.00;1.02;;;21.80;95.60;;;;;;4990754;28;20122;-84
2023/08/09 11:53:58;;;;;;;2.63;1.17;;;22.00;95.60;;;;;;4990536;28;20050;-86
2023/08/09 11:56:24;;;;;;;2.45;1.20;;;22.00;93.60;;;;;;4976864;28;20725;-85
2023/08/09 11:58:53;;;;;;;1.75;0.88;;;21.90;93.20;;;;;;4971275;28;20057;-83
2023/08/09 12:01:24;;;;;;;1.25;0.88;;;21.80;93.00;;;;;;4979516;28;20544;-83
2023/08/09 12:03:52;;;;;;;1.75;1.10;;;21.70;91.70;;;;;;4990667;28;20038;-83
2023/08/09 12:06:32;;;;;;;1.90;1.00;;;21.50;92.00;;;;;;4975063;28;20061;-83
2023/08/09 12:08:57;;;;;;;2.20;0.95;;;21.20;92.20;;;;;;4970533;28;20050;-84
2023/08/09 12:11:23;;;;;;;2.00;1.10;;;21.00;91.90;;;;;;4984097;28;20423;-84
2023/08/09 12:13:48;;;;;;;1.42;0.80;;;20.80;92.10;;;;;;4989034;28;20108;-83
2023/08/09 12:16:14;;;;;;;2.42;1.38;;;20.80;93.00;;;;;;4990322;28;20043;-85
2023/08/09 12:18:40;;;;;;;1.63;0.90;;;20.90;92.90;;;;;;4989921;28;20038;-83
2023/08/09 12:21:07;;;;;;;2.33;1.13;;;21.00;92.80;;;;;;4988970;28;20076;-85
2023/08/09 12:23:35;;;;;;;1.83;1.00;;;21.10;92.60;;;;;;4980784;28;20090;-84
2023/08/09 12:26:01;;;;;;;1.30;1.10;;;21.30;92.60;;;;;;4988927;28;20054;-84
2023/08/09 12:28:27;;;;;;;1.48;0.88;;;21.30;92.40;;;;;;4989131;28;20412;-84
2023/08/09 12:30:52;;;;;;;2.75;1.30;;;21.40;92.60;;;;;;4984412;28;20070;-82
2023/08/09 12:33:18;;;;;;;2.22;1.05;;;21.40;92.40;;;;;;4977774;28;20030;-82
2023/08/09 12:35:44;;;;;;;2.95;0.98;;;21.40;92.20;;;;;;4990140;28;20460;-82
2023/08/09 12:38:09;;;;;;;4.97;1.20;;;21.30;91.70;;;;;;4990302;28;20050;-82
2023/08/09 12:40:35;;;;;;;3.47;1.13;;;21.30;91.60;;;;;;4989734;28;20492;-83